sensor_id;sensor_type;location;lat;lon;timestamp;temperature;humidity
9151;DHT22;4610;50.006;7.490;2022-10-17T00:00:39;12.00;99.90
9151;DHT22;4610;50.006;7.490;2022-10-17T00:03:06;12.00;99.90
9151;DHT22;4610;50.006;7.490;2022-10-17T00:05:33;12.10;99.90
9151;DHT22;4610;50.006;7.490;2022-10-17T00:08:00;12.10;99.90
9151;DHT22;4610;50.006;7.490;2022-10-17T00:10:28;12.10;99.90
9151;DHT22;4610;50.006;7.490;2022-10-17T00:12:55;12.10;99.90
9151;DHT22;4610;50.006;7.490;2022-10-17T00:15:22;12.10;99.90
9151;DHT22;4610;50.006;7.490;2022-10-17T00:17:49;12.10;99.90
9151;DHT22;4610;50.006;7.490;2022-10-17T00:20:16;12.10;99.90
9151;DHT22;4610;50.006;7.490;2022-10-17T00:22:43;12.10;99.90
9151;DHT22;4610;50.006;7.490;2022-10-17T00:25:10;12.10;99.90
9151;DHT22;4610;50.006;7.490;2022-10-17T00:27:39;12.10;99.90
9151;DHT22;4610;50.006;7.490;2022-10-17T00:30:10;12.20;99.90
9151;DHT22;4610;50.006;7.490;2022-10-17T00:32:37;12.20;99.90
9151;DHT22;4610;50.006;7.490;2022-10-17T00:35:04;12.20;99.90
9151;DHT22;4610;50.006;7.490;2022-10-17T00:37:32;12.30;99.90
9151;DHT22;4610;50.006;7.490;2022-10-17T00:39:59;12.30;99.90
9151;DHT22;4610;50.006;7.490;2022-10-17T00:42:26;12.30;99.90
9151;DHT22;4610;50.006;7.490;2022-10-17T00:45:06;12.40;99.90
9151;DHT22;4610;50.006;7.490;2022-10-17T00:47:34;12.50;99.90
9151;DHT22;4610;50.006;7.490;2022-10-17T00:50:02;12.80;99.90
9151;DHT22;4610;50.006;7.490;2022-10-17T00:52:31;13.00;99.90
9151;DHT22;4610;50.006;7.490;2022-10-17T00:55:01;13.10;99.90
9151;DHT22;4610;50.006;7.490;2022-10-17T00:57:30;13.10;99.90
9151;DHT22;4610;50.006;7.490;2022-10-17T00:59:59;13.20;99.90
9151;DHT22;4610;50.006;7.490;2022-10-17T01:02:29;13.20;99.90
9151;DHT22;4610;50.006;7.490;2022-10-17T01:04:56;13.20;99.90
9151;DHT22;4610;50.006;7.490;2022-10-17T01:07:24;13.20;99.90
9151;DHT22;4610;50.006;7.490;2022-10-17T01:09:52;13.30;99.90
9151;DHT22;4610;50.006;7.490;2022-10-17T01:12:22;13.20;99.90
9151;DHT22;4610;50.006;7.490;2022-10-17T01:14:59;13.30;99.90
9151;DHT22;4610;50.006;7.490;2022-10-17T01:17:34;13.30;99.90
9151;DHT22;4610;50.006;7.490;2022-10-17T01:20:44;13.30;99.90
9151;DHT22;4610;50.006;7.490;2022-10-17T01:23:26;13.30;99.90
9151;DHT22;4610;50.006;7.490;2022-10-17T01:26:01;13.30;99.90
9151;DHT22;4610;50.006;7.490;2022-10-17T01:28:55;13.10;99.90
9151;DHT22;4610;50.006;7.490;2022-10-17T01:31:33;13.20;99.90
9151;DHT22;4610;50.006;7.490;2022-10-17T01:34:06;13.20;99.90
9151;DHT22;4610;50.006;7.490;2022-10-17T01:36:40;13.20;99.90
9151;DHT22;4610;50.006;7.490;2022-10-17T01:39:16;13.10;99.90
9151;DHT22;4610;50.006;7.490;2022-10-17T01:41:50;13.10;99.90
9151;DHT22;4610;50.006;7.490;2022-10-17T01:44:22;13.10;99.90
9151;DHT22;4610;50.006;7.490;2022-10-17T01:46:56;13.10;99.90
9151;DHT22;4610;50.006;7.490;2022-10-17T01:49:26;13.10;99.90
9151;DHT22;4610;50.006;7.490;2022-10-17T01:51:56;13.10;99.90
9151;DHT22;4610;50.006;7.490;2022-10-17T01:54:27;13.10;99.90
9151;DHT22;4610;50.006;7.490;2022-10-17T01:56:58;13.10;99.90
9151;DHT22;4610;50.006;7.490;2022-10-17T01:59:29;13.10;99.90
9151;DHT22;4610;50.006;7.490;2022-10-17T02:01:58;13.10;99.90
9151;DHT22;4610;50.006;7.490;2022-10-17T02:04:27;13.10;99.90
9151;DHT22;4610;50.006;7.490;2022-10-17T02:06:53;13.10;99.90
9151;DHT22;4610;50.006;7.490;2022-10-17T02:09:22;13.00;99.90
9151;DHT22;4610;50.006;7.490;2022-10-17T02:12:18;13.00;99.90
9151;DHT22;4610;50.006;7.490;2022-10-17T02:14:58;13.00;99.90
9151;DHT22;4610;50.006;7.490;2022-10-17T02:17:39;13.00;99.90
9151;DHT22;4610;50.006;7.490;2022-10-17T02:20:15;13.00;99.90
9151;DHT22;4610;50.006;7.490;2022-10-17T02:22:48;13.00;99.90
9151;DHT22;4610;50.006;7.490;2022-10-17T02:25:22;13.00;99.90
9151;DHT22;4610;50.006;7.490;2022-10-17T02:27:57;13.00;99.90
9151;DHT22;4610;50.006;7.490;2022-10-17T02:30:30;13.00;99.90
9151;DHT22;4610;50.006;7.490;2022-10-17T02:33:05;13.00;99.90
9151;DHT22;4610;50.006;7.490;2022-10-17T02:35:36;12.90;99.90
9151;DHT22;4610;50.006;7.490;2022-10-17T02:38:05;12.80;99.90
9151;DHT22;4610;50.006;7.490;2022-10-17T02:40:34;12.80;99.90
9151;DHT22;4610;50.006;7.490;2022-10-17T02:43:01;12.70;99.90
9151;DHT22;4610;50.006;7.490;2022-10-17T02:45:29;12.70;99.90
9151;DHT22;4610;50.006;7.490;2022-10-17T02:48:03;12.80;99.90
9151;DHT22;4610;50.006;7.490;2022-10-17T02:50:37;12.90;99.90
9151;DHT22;4610;50.006;7.490;2022-10-17T02:53:09;12.90;99.90
9151;DHT22;4610;50.006;7.490;2022-10-17T02:55:41;13.00;99.90
9151;DHT22;4610;50.006;7.490;2022-10-17T02:58:12;13.00;99.90
9151;DHT22;4610;50.006;7.490;2022-10-17T03:00:42;13.00;99.90
9151;DHT22;4610;50.006;7.490;2022-10-17T03:03:22;13.00;99.90
9151;DHT22;4610;50.006;7.490;2022-10-17T03:05:49;13.00;99.90
9151;DHT22;4610;50.006;7.490;2022-10-17T03:08:16;13.10;99.90
9151;DHT22;4610;50.006;7.490;2022-10-17T03:10:43;13.10;99.90
9151;DHT22;4610;50.006;7.490;2022-10-17T03:13:10;13.10;99.90
9151;DHT22;4610;50.006;7.490;2022-10-17T03:15:37;13.10;99.90
9151;DHT22;4610;50.006;7.490;2022-10-17T03:18:04;13.10;99.90
9151;DHT22;4610;50.006;7.490;2022-10-17T03:20:32;13.10;99.90
9151;DHT22;4610;50.006;7.490;2022-10-17T03:22:59;13.10;99.90
9151;DHT22;4610;50.006;7.490;2022-10-17T03:25:26;13.10;99.90
9151;DHT22;4610;50.006;7.490;2022-10-17T03:27:53;13.00;99.90
9151;DHT22;4610;50.006;7.490;2022-10-17T03:30:20;13.00;99.90
9151;DHT22;4610;50.006;7.490;2022-10-17T03:32:46;13.00;99.90
9151;DHT22;4610;50.006;7.490;2022-10-17T03:35:13;13.10;99.90
9151;DHT22;4610;50.006;7.490;2022-10-17T03:37:41;13.10;99.90
9151;DHT22;4610;50.006;7.490;2022-10-17T03:40:09;13.10;99.90
9151;DHT22;4610;50.006;7.490;2022-10-17T03:42:36;13.20;99.90
9151;DHT22;4610;50.006;7.490;2022-10-17T03:45:03;13.30;99.90
9151;DHT22;4610;50.006;7.490;2022-10-17T03:47:30;13.40;99.90
9151;DHT22;4610;50.006;7.490;2022-10-17T03:49:57;13.30;99.90
9151;DHT22;4610;50.006;7.490;2022-10-17T03:52:23;13.30;99.90
9151;DHT22;4610;50.006;7.490;2022-10-17T03:54:51;13.30;99.90
9151;DHT22;4610;50.006;7.490;2022-10-17T03:57:18;13.30;99.90
9151;DHT22;4610;50.006;7.490;2022-10-17T03:59:45;13.30;99.90
9151;DHT22;4610;50.006;7.490;2022-10-17T04:02:12;13.20;99.90
9151;DHT22;4610;50.006;7.490;2022-10-17T04:04:38;13.20;99.90
9151;DHT22;4610;50.006;7.490;2022-10-17T04:07:05;13.10;99.90
9151;DHT22;4610;50.006;7.490;2022-10-17T04:09:32;13.10;99.90
9151;DHT22;4610;50.006;7.490;2022-10-17T04:12:00;13.00;99.90
9151;DHT22;4610;50.006;7.490;2022-10-17T04:14:27;13.00;99.90
9151;DHT22;4610;50.006;7.490;2022-10-17T04:16:53;13.00;99.90
9151;DHT22;4610;50.006;7.490;2022-10-17T04:19:20;13.00;99.90
9151;DHT22;4610;50.006;7.490;2022-10-17T04:21:47;13.00;99.90
9151;DHT22;4610;50.006;7.490;2022-10-17T04:24:14;13.00;99.90
9151;DHT22;4610;50.006;7.490;2022-10-17T04:26:41;12.90;99.90
9151;DHT22;4610;50.006;7.490;2022-10-17T04:29:09;12.90;99.90
9151;DHT22;4610;50.006;7.490;2022-10-17T04:31:36;12.90;99.90
9151;DHT22;4610;50.006;7.490;2022-10-17T04:34:03;12.90;99.90
9151;DHT22;4610;50.006;7.490;2022-10-17T04:36:30;12.80;99.90
9151;DHT22;4610;50.006;7.490;2022-10-17T04:38:57;12.70;99.90
9151;DHT22;4610;50.006;7.490;2022-10-17T04:41:26;12.60;99.90
9151;DHT22;4610;50.006;7.490;2022-10-17T04:43:52;12.60;99.90
9151;DHT22;4610;50.006;7.490;2022-10-17T04:46:21;12.60;99.90
9151;DHT22;4610;50.006;7.490;2022-10-17T04:48:48;12.70;99.90
9151;DHT22;4610;50.006;7.490;2022-10-17T04:51:16;12.70;99.90
9151;DHT22;4610;50.006;7.490;2022-10-17T04:53:44;12.60;99.90
9151;DHT22;4610;50.006;7.490;2022-10-17T04:56:14;12.60;99.90
9151;DHT22;4610;50.006;7.490;2022-10-17T04:58:42;12.60;99.90
9151;DHT22;4610;50.006;7.490;2022-10-17T05:01:11;12.60;99.90
9151;DHT22;4610;50.006;7.490;2022-10-17T05:03:39;12.70;99.90
9151;DHT22;4610;50.006;7.490;2022-10-17T05:06:10;12.80;99.90
9151;DHT22;4610;50.006;7.490;2022-10-17T05:08:37;12.80;99.90
9151;DHT22;4610;50.006;7.490;2022-10-17T05:11:05;12.80;99.90
9151;DHT22;4610;50.006;7.490;2022-10-17T05:13:40;12.80;99.90
9151;DHT22;4610;50.006;7.490;2022-10-17T05:16:06;12.90;99.90
9151;DHT22;4610;50.006;7.490;2022-10-17T05:18:33;12.90;99.90
9151;DHT22;4610;50.006;7.490;2022-10-17T05:21:02;12.90;99.90
9151;DHT22;4610;50.006;7.490;2022-10-17T05:23:28;13.00;99.90
9151;DHT22;4610;50.006;7.490;2022-10-17T05:25:55;13.00;99.90
9151;DHT22;4610;50.006;7.490;2022-10-17T05:28:22;12.90;99.90
9151;DHT22;4610;50.006;7.490;2022-10-17T05:30:49;12.90;99.90
9151;DHT22;4610;50.006;7.490;2022-10-17T05:33:16;12.90;99.90
9151;DHT22;4610;50.006;7.490;2022-10-17T05:35:43;12.90;99.90
9151;DHT22;4610;50.006;7.490;2022-10-17T05:38:11;13.00;99.90
9151;DHT22;4610;50.006;7.490;2022-10-17T05:40:38;12.90;99.90
9151;DHT22;4610;50.006;7.490;2022-10-17T05:43:05;13.00;99.90
9151;DHT22;4610;50.006;7.490;2022-10-17T05:45:32;12.90;99.90
9151;DHT22;4610;50.006;7.490;2022-10-17T05:47:58;12.90;99.90
9151;DHT22;4610;50.006;7.490;2022-10-17T05:50:25;12.90;99.90
9151;DHT22;4610;50.006;7.490;2022-10-17T05:52:52;13.40;99.90
9151;DHT22;4610;50.006;7.490;2022-10-17T05:55:21;13.30;99.90
9151;DHT22;4610;50.006;7.490;2022-10-17T05:57:47;13.20;99.90
9151;DHT22;4610;50.006;7.490;2022-10-17T06:00:14;13.10;99.90
9151;DHT22;4610;50.006;7.490;2022-10-17T06:02:42;13.10;99.90
9151;DHT22;4610;50.006;7.490;2022-10-17T06:05:10;13.00;99.90
9151;DHT22;4610;50.006;7.490;2022-10-17T06:07:37;13.00;99.90
9151;DHT22;4610;50.006;7.490;2022-10-17T06:10:05;13.00;99.90
9151;DHT22;4610;50.006;7.490;2022-10-17T06:12:33;13.10;99.90
9151;DHT22;4610;50.006;7.490;2022-10-17T06:15:00;13.20;99.90
9151;DHT22;4610;50.006;7.490;2022-10-17T06:17:27;13.60;99.90
9151;DHT22;4610;50.006;7.490;2022-10-17T06:19:54;13.90;99.90
9151;DHT22;4610;50.006;7.490;2022-10-17T06:22:21;14.40;99.90
9151;DHT22;4610;50.006;7.490;2022-10-17T06:24:48;14.80;99.90
9151;DHT22;4610;50.006;7.490;2022-10-17T06:27:17;15.20;99.90
9151;DHT22;4610;50.006;7.490;2022-10-17T06:29:45;15.50;99.90
9151;DHT22;4610;50.006;7.490;2022-10-17T06:32:12;15.60;99.90
9151;DHT22;4610;50.006;7.490;2022-10-17T06:34:39;15.50;99.90
9151;DHT22;4610;50.006;7.490;2022-10-17T06:37:06;15.30;99.90
9151;DHT22;4610;50.006;7.490;2022-10-17T06:39:33;15.10;99.90
9151;DHT22;4610;50.006;7.490;2022-10-17T06:42:01;15.00;99.90
9151;DHT22;4610;50.006;7.490;2022-10-17T06:44:28;14.80;99.90
9151;DHT22;4610;50.006;7.490;2022-10-17T06:46:57;14.70;99.90
9151;DHT22;4610;50.006;7.490;2022-10-17T06:49:25;14.60;99.90
9151;DHT22;4610;50.006;7.490;2022-10-17T06:51:52;14.60;99.90
9151;DHT22;4610;50.006;7.490;2022-10-17T06:54:19;14.60;99.90
9151;DHT22;4610;50.006;7.490;2022-10-17T06:56:46;14.70;99.90
9151;DHT22;4610;50.006;7.490;2022-10-17T06:59:12;14.70;99.90
9151;DHT22;4610;50.006;7.490;2022-10-17T07:01:40;14.80;99.90
9151;DHT22;4610;50.006;7.490;2022-10-17T07:04:08;14.90;99.90
9151;DHT22;4610;50.006;7.490;2022-10-17T07:06:35;14.90;99.90
9151;DHT22;4610;50.006;7.490;2022-10-17T07:09:02;15.10;99.90
9151;DHT22;4610;50.006;7.490;2022-10-17T07:11:32;15.30;99.90
9151;DHT22;4610;50.006;7.490;2022-10-17T07:14:00;15.50;99.90
9151;DHT22;4610;50.006;7.490;2022-10-17T07:16:26;15.60;99.90
9151;DHT22;4610;50.006;7.490;2022-10-17T07:18:54;15.80;99.90
9151;DHT22;4610;50.006;7.490;2022-10-17T07:21:22;15.90;99.90
9151;DHT22;4610;50.006;7.490;2022-10-17T07:23:49;16.00;99.90
9151;DHT22;4610;50.006;7.490;2022-10-17T07:26:17;16.10;99.90
9151;DHT22;4610;50.006;7.490;2022-10-17T07:28:45;16.10;99.90
9151;DHT22;4610;50.006;7.490;2022-10-17T07:31:15;16.10;99.90
9151;DHT22;4610;50.006;7.490;2022-10-17T07:33:42;16.10;99.90
9151;DHT22;4610;50.006;7.490;2022-10-17T07:36:10;16.10;99.90
9151;DHT22;4610;50.006;7.490;2022-10-17T07:38:39;16.20;99.90
9151;DHT22;4610;50.006;7.490;2022-10-17T07:41:08;16.30;99.90
9151;DHT22;4610;50.006;7.490;2022-10-17T07:43:36;16.30;99.90
9151;DHT22;4610;50.006;7.490;2022-10-17T07:46:04;16.50;99.90
9151;DHT22;4610;50.006;7.490;2022-10-17T07:48:31;16.90;99.90
9151;DHT22;4610;50.006;7.490;2022-10-17T07:51:01;16.90;99.90
9151;DHT22;4610;50.006;7.490;2022-10-17T07:53:29;17.30;99.90
9151;DHT22;4610;50.006;7.490;2022-10-17T07:55:57;17.60;99.90
9151;DHT22;4610;50.006;7.490;2022-10-17T07:58:24;17.90;99.90
9151;DHT22;4610;50.006;7.490;2022-10-17T08:00:53;18.20;99.90
9151;DHT22;4610;50.006;7.490;2022-10-17T08:03:19;18.30;99.90
9151;DHT22;4610;50.006;7.490;2022-10-17T08:05:46;18.60;99.90
9151;DHT22;4610;50.006;7.490;2022-10-17T08:08:13;19.00;99.90
9151;DHT22;4610;50.006;7.490;2022-10-17T08:10:40;19.30;99.90
9151;DHT22;4610;50.006;7.490;2022-10-17T08:13:08;19.80;99.90
9151;DHT22;4610;50.006;7.490;2022-10-17T08:15:36;20.20;99.90
9151;DHT22;4610;50.006;7.490;2022-10-17T08:18:03;20.60;99.90
9151;DHT22;4610;50.006;7.490;2022-10-17T08:20:30;21.00;99.90
9151;DHT22;4610;50.006;7.490;2022-10-17T08:22:56;21.40;99.90
9151;DHT22;4610;50.006;7.490;2022-10-17T08:25:23;21.50;99.90
9151;DHT22;4610;50.006;7.490;2022-10-17T08:27:50;21.80;99.90
9151;DHT22;4610;50.006;7.490;2022-10-17T08:30:18;22.30;99.90
9151;DHT22;4610;50.006;7.490;2022-10-17T08:32:45;22.60;99.90
9151;DHT22;4610;50.006;7.490;2022-10-17T08:35:12;23.00;99.90
9151;DHT22;4610;50.006;7.490;2022-10-17T08:37:40;23.20;99.90
9151;DHT22;4610;50.006;7.490;2022-10-17T08:40:11;23.30;99.90
9151;DHT22;4610;50.006;7.490;2022-10-17T08:42:50;23.40;99.90
9151;DHT22;4610;50.006;7.490;2022-10-17T08:45:24;23.60;99.90
9151;DHT22;4610;50.006;7.490;2022-10-17T08:47:58;23.90;99.90
9151;DHT22;4610;50.006;7.490;2022-10-17T08:50:33;24.00;99.90
9151;DHT22;4610;50.006;7.490;2022-10-17T08:53:03;24.10;99.90
9151;DHT22;4610;50.006;7.490;2022-10-17T08:55:35;24.20;99.90
9151;DHT22;4610;50.006;7.490;2022-10-17T08:58:02;24.40;99.90
9151;DHT22;4610;50.006;7.490;2022-10-17T09:00:31;24.40;99.90
9151;DHT22;4610;50.006;7.490;2022-10-17T09:03:08;24.40;99.90
9151;DHT22;4610;50.006;7.490;2022-10-17T09:05:42;24.30;99.90
9151;DHT22;4610;50.006;7.490;2022-10-17T09:08:28;24.20;99.90
9151;DHT22;4610;50.006;7.490;2022-10-17T09:10:58;24.30;99.90
9151;DHT22;4610;50.006;7.490;2022-10-17T09:13:35;24.40;99.90
9151;DHT22;4610;50.006;7.490;2022-10-17T09:16:14;24.50;99.90
9151;DHT22;4610;50.006;7.490;2022-10-17T09:18:53;24.60;99.90
9151;DHT22;4610;50.006;7.490;2022-10-17T09:21:26;24.20;99.90
9151;DHT22;4610;50.006;7.490;2022-10-17T09:24:00;24.00;99.90
9151;DHT22;4610;50.006;7.490;2022-10-17T09:26:28;23.90;99.90
9151;DHT22;4610;50.006;7.490;2022-10-17T09:28:56;23.90;99.90
9151;DHT22;4610;50.006;7.490;2022-10-17T09:31:29;23.90;99.90
9151;DHT22;4610;50.006;7.490;2022-10-17T09:34:00;23.80;99.90
9151;DHT22;4610;50.006;7.490;2022-10-17T09:36:29;24.00;99.90
9151;DHT22;4610;50.006;7.490;2022-10-17T09:38:59;24.00;99.90
9151;DHT22;4610;50.006;7.490;2022-10-17T09:41:29;23.90;99.90
9151;DHT22;4610;50.006;7.490;2022-10-17T09:43:58;23.90;99.90
9151;DHT22;4610;50.006;7.490;2022-10-17T09:46:37;23.80;99.90
9151;DHT22;4610;50.006;7.490;2022-10-17T09:49:07;23.80;99.90
9151;DHT22;4610;50.006;7.490;2022-10-17T09:51:36;24.00;99.90
9151;DHT22;4610;50.006;7.490;2022-10-17T09:54:10;23.90;99.90
9151;DHT22;4610;50.006;7.490;2022-10-17T09:56:56;23.60;99.90
9151;DHT22;4610;50.006;7.490;2022-10-17T09:59:30;23.10;99.90
9151;DHT22;4610;50.006;7.490;2022-10-17T10:02:11;22.70;99.90
9151;DHT22;4610;50.006;7.490;2022-10-17T10:04:55;22.30;99.90
9151;DHT22;4610;50.006;7.490;2022-10-17T10:07:22;22.30;99.90
9151;DHT22;4610;50.006;7.490;2022-10-17T10:09:50;22.50;99.90
9151;DHT22;4610;50.006;7.490;2022-10-17T10:12:19;22.70;99.90
9151;DHT22;4610;50.006;7.490;2022-10-17T10:14:47;23.10;99.90
9151;DHT22;4610;50.006;7.490;2022-10-17T10:17:34;23.20;99.90
9151;DHT22;4610;50.006;7.490;2022-10-17T10:20:01;23.20;99.90
9151;DHT22;4610;50.006;7.490;2022-10-17T10:22:29;23.20;99.90
9151;DHT22;4610;50.006;7.490;2022-10-17T10:25:07;23.30;99.90
9151;DHT22;4610;50.006;7.490;2022-10-17T10:27:39;23.40;99.90
9151;DHT22;4610;50.006;7.490;2022-10-17T10:30:16;23.50;99.90
9151;DHT22;4610;50.006;7.490;2022-10-17T10:32:47;23.40;99.90
9151;DHT22;4610;50.006;7.490;2022-10-17T10:35:20;23.30;99.90
9151;DHT22;4610;50.006;7.490;2022-10-17T10:37:48;23.10;99.90
9151;DHT22;4610;50.006;7.490;2022-10-17T10:40:18;23.10;99.90
9151;DHT22;4610;50.006;7.490;2022-10-17T10:42:46;23.20;99.90
9151;DHT22;4610;50.006;7.490;2022-10-17T10:45:16;23.20;99.90
9151;DHT22;4610;50.006;7.490;2022-10-17T10:47:51;23.20;99.90
9151;DHT22;4610;50.006;7.490;2022-10-17T10:50:28;23.20;99.90
9151;DHT22;4610;50.006;7.490;2022-10-17T10:53:09;23.10;99.90
9151;DHT22;4610;50.006;7.490;2022-10-17T10:55:43;23.00;99.90
9151;DHT22;4610;50.006;7.490;2022-10-17T10:58:22;22.90;99.90
9151;DHT22;4610;50.006;7.490;2022-10-17T11:00:53;22.90;99.90
9151;DHT22;4610;50.006;7.490;2022-10-17T11:03:25;22.80;99.90
9151;DHT22;4610;50.006;7.490;2022-10-17T11:05:56;22.50;99.90
9151;DHT22;4610;50.006;7.490;2022-10-17T11:08:31;22.30;99.90
9151;DHT22;4610;50.006;7.490;2022-10-17T11:11:11;22.30;99.90
9151;DHT22;4610;50.006;7.490;2022-10-17T11:13:46;22.50;99.90
9151;DHT22;4610;50.006;7.490;2022-10-17T11:16:22;22.70;99.90
9151;DHT22;4610;50.006;7.490;2022-10-17T11:18:57;23.00;99.90
9151;DHT22;4610;50.006;7.490;2022-10-17T11:21:33;23.20;99.90
9151;DHT22;4610;50.006;7.490;2022-10-17T11:24:06;23.50;99.90
9151;DHT22;4610;50.006;7.490;2022-10-17T11:26:39;23.60;99.90
9151;DHT22;4610;50.006;7.490;2022-10-17T11:29:10;23.40;99.90
9151;DHT22;4610;50.006;7.490;2022-10-17T11:31:41;23.30;99.90
9151;DHT22;4610;50.006;7.490;2022-10-17T11:34:14;23.10;99.90
9151;DHT22;4610;50.006;7.490;2022-10-17T11:36:46;23.10;99.90
9151;DHT22;4610;50.006;7.490;2022-10-17T11:39:17;23.00;99.90
9151;DHT22;4610;50.006;7.490;2022-10-17T11:41:47;23.00;99.90
9151;DHT22;4610;50.006;7.490;2022-10-17T11:44:19;23.00;99.90
9151;DHT22;4610;50.006;7.490;2022-10-17T11:46:53;23.10;99.90
9151;DHT22;4610;50.006;7.490;2022-10-17T11:49:26;23.00;99.90
9151;DHT22;4610;50.006;7.490;2022-10-17T11:52:06;23.00;99.90
9151;DHT22;4610;50.006;7.490;2022-10-17T11:54:37;23.00;99.90
9151;DHT22;4610;50.006;7.490;2022-10-17T11:57:21;22.90;99.90
9151;DHT22;4610;50.006;7.490;2022-10-17T12:00:03;22.70;99.90
9151;DHT22;4610;50.006;7.490;2022-10-17T12:02:37;22.60;99.90
9151;DHT22;4610;50.006;7.490;2022-10-17T12:05:18;22.50;99.90
9151;DHT22;4610;50.006;7.490;2022-10-17T12:07:51;22.50;99.90
9151;DHT22;4610;50.006;7.490;2022-10-17T12:10:31;22.50;99.90
9151;DHT22;4610;50.006;7.490;2022-10-17T12:16:35;22.60;99.90
9151;DHT22;4610;50.006;7.490;2022-10-17T12:19:20;22.70;99.90
9151;DHT22;4610;50.006;7.490;2022-10-17T12:21:58;22.70;99.90
9151;DHT22;4610;50.006;7.490;2022-10-17T12:24:34;22.80;99.90
9151;DHT22;4610;50.006;7.490;2022-10-17T12:30:05;22.70;99.90
9151;DHT22;4610;50.006;7.490;2022-10-17T12:32:53;22.80;99.90
9151;DHT22;4610;50.006;7.490;2022-10-17T12:35:22;22.70;99.90
9151;DHT22;4610;50.006;7.490;2022-10-17T12:40:53;22.70;99.90
9151;DHT22;4610;50.006;7.490;2022-10-17T12:46:43;22.60;99.90
9151;DHT22;4610;50.006;7.490;2022-10-17T12:54:55;22.40;99.90
9151;DHT22;4610;50.006;7.490;2022-10-17T12:57:29;22.40;99.90
9151;DHT22;4610;50.006;7.490;2022-10-17T12:59:57;22.30;99.90
9151;DHT22;4610;50.006;7.490;2022-10-17T13:02:26;22.30;99.90
9151;DHT22;4610;50.006;7.490;2022-10-17T13:04:58;22.10;99.90
9151;DHT22;4610;50.006;7.490;2022-10-17T13:07:29;22.10;99.90
9151;DHT22;4610;50.006;7.490;2022-10-17T13:09:57;22.00;99.90
9151;DHT22;4610;50.006;7.490;2022-10-17T13:12:29;21.90;99.90
9151;DHT22;4610;50.006;7.490;2022-10-17T13:14:58;21.80;99.90
9151;DHT22;4610;50.006;7.490;2022-10-17T13:17:28;21.70;99.90
9151;DHT22;4610;50.006;7.490;2022-10-17T13:19:55;21.70;99.90
9151;DHT22;4610;50.006;7.490;2022-10-17T13:22:25;21.60;99.90
9151;DHT22;4610;50.006;7.490;2022-10-17T13:25:04;21.50;99.90
9151;DHT22;4610;50.006;7.490;2022-10-17T13:27:35;21.40;99.90
9151;DHT22;4610;50.006;7.490;2022-10-17T13:30:24;21.30;99.90
9151;DHT22;4610;50.006;7.490;2022-10-17T13:32:51;21.30;99.90
9151;DHT22;4610;50.006;7.490;2022-10-17T13:35:24;21.20;99.90
9151;DHT22;4610;50.006;7.490;2022-10-17T13:37:53;21.20;99.90
9151;DHT22;4610;50.006;7.490;2022-10-17T13:40:23;21.20;99.90
9151;DHT22;4610;50.006;7.490;2022-10-17T13:42:53;21.20;99.90
9151;DHT22;4610;50.006;7.490;2022-10-17T13:45:26;21.10;99.90
9151;DHT22;4610;50.006;7.490;2022-10-17T13:47:54;21.00;99.90
9151;DHT22;4610;50.006;7.490;2022-10-17T13:50:25;21.10;99.90
9151;DHT22;4610;50.006;7.490;2022-10-17T13:53:07;21.10;99.90
9151;DHT22;4610;50.006;7.490;2022-10-17T13:55:36;21.10;99.90
9151;DHT22;4610;50.006;7.490;2022-10-17T13:58:14;21.20;99.90
9151;DHT22;4610;50.006;7.490;2022-10-17T14:00:41;21.30;99.90
9151;DHT22;4610;50.006;7.490;2022-10-17T14:03:09;21.40;99.90
9151;DHT22;4610;50.006;7.490;2022-10-17T14:06:01;21.50;99.90
9151;DHT22;4610;50.006;7.490;2022-10-17T14:08:30;21.60;99.90
9151;DHT22;4610;50.006;7.490;2022-10-17T14:10:58;21.50;99.90
9151;DHT22;4610;50.006;7.490;2022-10-17T14:13:28;21.60;99.90
9151;DHT22;4610;50.006;7.490;2022-10-17T14:15:58;21.50;99.90
9151;DHT22;4610;50.006;7.490;2022-10-17T14:18:27;21.50;99.90
9151;DHT22;4610;50.006;7.490;2022-10-17T14:20:54;21.50;99.90
9151;DHT22;4610;50.006;7.490;2022-10-17T14:23:36;21.50;99.90
9151;DHT22;4610;50.006;7.490;2022-10-17T14:26:15;21.90;99.90
9151;DHT22;4610;50.006;7.490;2022-10-17T14:28:45;21.30;99.90
9151;DHT22;4610;50.006;7.490;2022-10-17T14:31:28;21.30;99.90
9151;DHT22;4610;50.006;7.490;2022-10-17T14:33:56;21.10;99.90
9151;DHT22;4610;50.006;7.490;2022-10-17T14:36:35;21.00;99.90
9151;DHT22;4610;50.006;7.490;2022-10-17T14:39:05;20.70;99.90
9151;DHT22;4610;50.006;7.490;2022-10-17T14:41:34;20.80;99.90
9151;DHT22;4610;50.006;7.490;2022-10-17T14:44:04;20.80;99.90
9151;DHT22;4610;50.006;7.490;2022-10-17T14:46:34;20.70;99.90
9151;DHT22;4610;50.006;7.490;2022-10-17T14:49:04;20.70;99.90
9151;DHT22;4610;50.006;7.490;2022-10-17T14:51:31;20.70;99.90
9151;DHT22;4610;50.006;7.490;2022-10-17T14:54:02;20.70;99.90
9151;DHT22;4610;50.006;7.490;2022-10-17T14:56:36;20.60;99.90
9151;DHT22;4610;50.006;7.490;2022-10-17T14:59:04;20.50;99.90
9151;DHT22;4610;50.006;7.490;2022-10-17T15:01:32;20.40;99.90
9151;DHT22;4610;50.006;7.490;2022-10-17T15:03:59;20.40;99.90
9151;DHT22;4610;50.006;7.490;2022-10-17T15:06:27;20.40;99.90
9151;DHT22;4610;50.006;7.490;2022-10-17T15:08:55;20.60;99.90
9151;DHT22;4610;50.006;7.490;2022-10-17T15:11:22;20.30;99.90
9151;DHT22;4610;50.006;7.490;2022-10-17T15:13:48;20.30;99.90
9151;DHT22;4610;50.006;7.490;2022-10-17T15:16:19;20.20;99.90
9151;DHT22;4610;50.006;7.490;2022-10-17T15:18:47;20.10;99.90
9151;DHT22;4610;50.006;7.490;2022-10-17T15:21:15;20.10;99.90
9151;DHT22;4610;50.006;7.490;2022-10-17T15:23:42;20.00;99.90
9151;DHT22;4610;50.006;7.490;2022-10-17T15:26:16;20.00;99.90
9151;DHT22;4610;50.006;7.490;2022-10-17T15:28:44;19.90;99.90
9151;DHT22;4610;50.006;7.490;2022-10-17T15:31:13;19.80;99.90
9151;DHT22;4610;50.006;7.490;2022-10-17T15:33:43;20.40;99.90
9151;DHT22;4610;50.006;7.490;2022-10-17T15:36:24;19.80;99.90
9151;DHT22;4610;50.006;7.490;2022-10-17T15:38:53;19.80;99.90
9151;DHT22;4610;50.006;7.490;2022-10-17T15:41:22;19.80;99.90
9151;DHT22;4610;50.006;7.490;2022-10-17T15:43:49;19.70;99.90
9151;DHT22;4610;50.006;7.490;2022-10-17T15:46:18;19.70;99.90
9151;DHT22;4610;50.006;7.490;2022-10-17T15:48:47;19.70;99.90
9151;DHT22;4610;50.006;7.490;2022-10-17T15:51:14;19.60;99.90
9151;DHT22;4610;50.006;7.490;2022-10-17T15:53:40;19.60;99.90
9151;DHT22;4610;50.006;7.490;2022-10-17T15:56:17;19.50;99.90
9151;DHT22;4610;50.006;7.490;2022-10-17T15:58:45;19.50;99.90
9151;DHT22;4610;50.006;7.490;2022-10-17T16:01:19;19.40;99.90
9151;DHT22;4610;50.006;7.490;2022-10-17T16:03:48;19.30;99.90
9151;DHT22;4610;50.006;7.490;2022-10-17T16:06:16;19.20;99.90
9151;DHT22;4610;50.006;7.490;2022-10-17T16:08:43;19.00;99.90
9151;DHT22;4610;50.006;7.490;2022-10-17T16:11:16;18.90;99.90
9151;DHT22;4610;50.006;7.490;2022-10-17T16:13:48;18.90;99.90
9151;DHT22;4610;50.006;7.490;2022-10-17T16:16:16;18.80;99.90
9151;DHT22;4610;50.006;7.490;2022-10-17T16:18:43;18.60;99.90
9151;DHT22;4610;50.006;7.490;2022-10-17T16:21:13;18.60;99.90
9151;DHT22;4610;50.006;7.490;2022-10-17T16:23:41;18.60;99.90
9151;DHT22;4610;50.006;7.490;2022-10-17T16:26:08;18.60;99.90
9151;DHT22;4610;50.006;7.490;2022-10-17T16:28:35;18.50;99.90
9151;DHT22;4610;50.006;7.490;2022-10-17T16:31:01;18.50;99.90
9151;DHT22;4610;50.006;7.490;2022-10-17T16:33:28;18.40;99.90
9151;DHT22;4610;50.006;7.490;2022-10-17T16:35:56;18.40;99.90
9151;DHT22;4610;50.006;7.490;2022-10-17T16:38:24;18.40;99.90
9151;DHT22;4610;50.006;7.490;2022-10-17T16:40:51;18.30;99.90